Collinsville, Illinois
Current Conditions -  °F | °C
As of 3:28 AM on Monday 24 Nov 2014 (Local Time) from KBLV Reporting Station
Drizzle Drizzle  
Wind Chill: 36°   Ceiling: 1400
Heat Index: 45°   Visibility: 10mi
Dew Point: 45°   Wind: 21mph
Humidity: 100%   Direction: 290°WNW
Pressure: 29.29"   Gusts: 32mph
Location:  38.67°N, 89.98°W
Report Text: KBLV 240928Z AUTO 29018G28KT 10SM -DZ BKN014 OVC021 07/07 A2929 RMK AO2 RAB0902DZE0916
Loading
Personal Weather Stations






























Interactive Weather Map New forecast layout! Learn more

10-Day Weather Forecast

Advertisements
Track Severe Weather on mobile